Arkville, NY (12406)

10:47 PM EST on February 05, 2016 (GMT -0500)
Downtown Pine Hill | | Change Station
CLOSE
Current Station
Personal Weather Station
Location: Pine Hill, NY
Elevation: 1680 ft
Nearby Weather Stations

Elev 1680 ft 42.13 °N, 74.48 °W | Updated 6 seconds ago

Clear
Clear
22.1 °F
Feels Like 22 °F
N
0.0
Wind Variable Wind from ESE
Gusts 1.0 mph

Today
High -- | Low -- °F
--% Chance of Precip.
Yesterday
High -- | Low -- °F
Precip. -- in
Pressure 30.27 in
Visibility 10.0 miles
Clouds Clear
Windchill 22 °F
Dew Point 14 °F
Humidity 69%
Rainfall 0.00 in
Snow Depth Not available.
7:07 AM 5:17 PM
Waning Crescent, 8% visible
METAR KMSV 060335Z AUTO 28007KT 10SM CLR M05/M09 A3027 RMK AO1
Pressure 30.27 in
Visibility 10.0 miles
Clouds Clear
Windchill 22 °F
Dew Point 14 °F
Humidity 69%
Rainfall 0.00 in
Snow Depth Not available.
7:07 AM 5:17 PM
Waning Crescent, 8% visible
METAR KMSV 060335Z AUTO 28007KT 10SM CLR M05/M09 A3027 RMK AO1

10-Day Weather Forecast

Almanac

Astronomy

Feb. 05, 2016 Rise Set
Actual Time
Civil Twilight
Nautical Twilight
Astronomical Twilight
Moon
Length of Visible Light
Length of Day
Tomorrow will be .
, % of the Moon is Illuminated

Today's Extremes

State Highs State Lows

Community

WunderPhotos

Upload Photos

1,890,922 photos uploaded!

WunderBlog® & News

Nearby

Air Quality

  Air Quality AQ Index Pollutant
Not available.

Snow Depth

Station Depth Elevation

Earthquake Activity

City Distance Mag. Time & Date
Minimum magnitude displayed is 2.5.

Coastal Water Temperatures

Place Temperature

Stations

Nearby Weather Stations

Station Location Temp. Windchill Dew Point Humidity Wind Precip. Elev Updated Type
                   

Watches & Warnings

There are currently no watches in effect.